• Join FlightAware (Why Join?)
  • Login
  • US Flag 
10:15PM EDT


 

Airport Tracker/Info


-or-


 

Live Flight TrackerFlight Track Log ✈ UPS1331 ✈ 07-Mar-2014 ✈ KMIA - KSDF

Flight Track Log - Related Links

Times and Time Zones

All times are in EST time to prevent confusion due to time zone crossing. See the UPS1331 flight status page for this flight to view local times or setup timezone preferences in your user account.

Time Position Orientation Groundspeed Altitude Reporting Facility
EST Latitude Longitude Course Direction KTS MPH feet Rate Location/Type
10:22PM 25.7975 -80.3022 260° West 166 191 700  Level Miami Center
10:23PM 25.7853 -80.3756 260° West 224 258 3,700 2,340 Climbing Miami Center
10:24PM 25.8025 -80.4408 286° West 250 288 6,200 2,340 Climbing Miami Center
10:25PM 25.8692 -80.4472 355° North 262 302 8,000 2,820 Climbing Miami Center
10:25PM 25.8756 -80.4475 358° North 276 318 9,100 2,700 Climbing Miami Center
10:26PM 25.9467 -80.4428 North 278 320 10,600 2,040 Climbing Miami Center
10:26PM 25.9550 -80.4431 358° North 297 342 11,200 2,640 Climbing Miami Center
10:32PM 26.5412 -80.5774 337° Northwest 419 482 26,300 2,580 Climbing FlightAware ADS-B (KMCO)
10:32PM 26.6093 -80.6096 337° Northwest 430 495 27,600 1,980 Climbing FlightAware ADS-B (KMCO)
10:33PM 26.6653 -80.6357 337° Northwest 437 503 28,600 1,920 Climbing FlightAware ADS-B (KMCO)
10:33PM 26.7265 -80.6646 337° Northwest 440 506 29,600 2,220 Climbing FlightAware ADS-B (KMCO)
10:34PM 26.7833 -80.6901 340° North 438 504 30,900 2,460 Climbing FlightAware ADS-B (KMCO)
10:35PM 26.8432 -80.7130 342° North 433 498 32,200 2,340 Climbing FlightAware ADS-B (KMCO)
10:35PM 26.8965 -80.7323 342° North 431 496 33,300 1,500 Climbing FlightAware ADS-B (KMCO)
10:36PM 26.9768 -80.7619 341° North 440 506 34,000 1,260 Climbing FlightAware ADS-B (KMCO)
10:36PM 27.0533 -80.7896 342° North 444 511 35,000 840 Climbing FlightAware ADS-B (KMCO)
10:37PM 27.1141 -80.8116 343° North 455 524 35,000  Level FlightAware ADS-B (KMCO)
10:37PM 27.1712 -80.8299 345° North 464 534 35,000  Level FlightAware ADS-B (KMCO)
10:38PM 27.2367 -80.8499 344° North 462 532 35,000  Level FlightAware ADS-B (KMCO)
10:39PM 27.3168 -80.8752 344° North 455 524 35,000  Level FlightAware ADS-B (KMCO)
10:39PM 27.3793 -80.8952 344° North 450 518 35,000  Level FlightAware ADS-B (KMCO)
10:40PM 27.4402 -80.9148 344° North 445 512 35,000  Level FlightAware ADS-B (KMCO)
10:40PM 27.4996 -80.9341 344° North 441 507 35,000  Level FlightAware ADS-B (KMCO)
10:41PM 27.5595 -80.9533 344° North 435 501 35,000  Level FlightAware ADS-B (KMCO)
10:41PM 27.6362 -80.9782 344° North 433 498 35,000  Level FlightAware ADS-B (KMCO)
10:42PM 27.6927 -80.9965 344° North 431 496 35,000  Level FlightAware ADS-B (KMCO)
10:42PM 27.7504 -81.0151 344° North 428 493 35,000  Level FlightAware ADS-B (KMCO)
10:43PM 27.8082 -81.0339 344° North 428 493 35,000  Level FlightAware ADS-B (KMCO)
10:43PM 27.8867 -81.0591 344° North 427 491 35,000  Level FlightAware ADS-B (KMCO)
10:44PM 27.9594 -81.0828 344° North 427 491 35,000  Level FlightAware ADS-B (KMCO)
10:45PM 28.0401 -81.1086 344° North 427 491 35,000  Level FlightAware ADS-B (KMCO)
10:45PM 28.0969 -81.1273 344° North 426 490 35,000  Level FlightAware ADS-B (KMCO)
10:46PM 28.1696 -81.1506 344° North 424 488 35,000  Level FlightAware ADS-B (KMCO)
10:46PM 28.2306 -81.1707 344° North 421 484 35,000  Level FlightAware ADS-B (KMCO)
10:47PM 28.2856 -81.1889 344° North 418 481 35,000  Level FlightAware ADS-B (KMCO)
10:47PM 28.3405 -81.2068 344° North 415 478 35,000  Level FlightAware ADS-B (KMCO)
10:48PM 28.3855 -81.2203 350° North 420 483 35,000  Level FlightAware ADS-B (KSFB)
10:48PM 28.4421 -81.2267 355° North 426 490 35,000  Level FlightAware ADS-B (KSFB)
10:49PM 28.5166 -81.2346 355° North 429 494 35,000  Level FlightAware ADS-B (KMCO)
10:49PM 28.5741 -81.2406 355° North 428 493 35,000  Level FlightAware ADS-B (KMCO)
10:50PM 28.6346 -81.2470 355° North 428 493 35,000  Level FlightAware ADS-B (KMCO)
10:50PM 28.6986 -81.2540 355° North 428 493 35,000  Level FlightAware ADS-B (KSFB)
10:51PM 28.7542 -81.2598 355° North 428 493 35,000  Level FlightAware ADS-B (KSFB)
10:52PM 28.8306 -81.2680 355° North 428 493 35,000  Level FlightAware ADS-B (KMCO)
10:52PM 28.8888 -81.2749 352° North 423 487 35,000  Level FlightAware ADS-B (KMCO)
10:53PM 28.9485 -81.2871 347° North 416 479 35,000  Level FlightAware ADS-B (KMCO)
10:53PM 29.0027 -81.3045 342° North 407 468 35,000  Level FlightAware ADS-B (KMCO)
10:54PM 29.0559 -81.3243 342° North 405 466 35,000  Level FlightAware ADS-B (KMCO)
10:54PM 29.1254 -81.3494 343° North 396 456 35,000  Level FlightAware ADS-B (KMCO)
10:55PM 29.1968 -81.3749 343° North 387 445 35,000  Level FlightAware ADS-B (KMCO)
10:55PM 29.2470 -81.3926 343° North 379 436 35,000  Level FlightAware ADS-B (KMCO)
10:57PM 29.3538 -81.4305 343° North 375 432 35,000  Level FlightAware ADS-B (KMCO)
10:57PM 29.4303 -81.4576 343° North 386 444 35,000  Level FlightAware ADS-B (KMCO)
10:58PM 29.4830 -81.4761 343° North 388 447 35,000  Level FlightAware ADS-B (KMCO)
10:58PM 29.5359 -81.4948 343° North 388 447 35,000  Level FlightAware ADS-B (KMCO)
10:59PM 29.5836 -81.5118 343° North 388 447 35,000  Level FlightAware ADS-B (KMCO)
10:59PM 29.6378 -81.5312 342° North 388 447 35,000  Level FlightAware ADS-B (KMCO)
11:00PM 29.7077 -81.5561 343° North 389 448 35,000  Level FlightAware ADS-B (KMCO)
11:00PM 29.7564 -81.5735 343° North 389 448 35,000  Level FlightAware ADS-B (KMCO)
11:02PM 29.9303 -81.6358 343° North 389 448 35,000  Level FlightAware ADS-B (KMCO)
11:03PM 29.9857 -81.6557 342° North 388 447 35,000  Level FlightAware ADS-B (KMCO)
11:04PM 30.1106 -81.7017 342° North 385 443 35,000  Level Jacksonville Center
11:05PM 30.2133 -81.7364 344° North 385 443 35,000  Level Jacksonville Center
11:06PM 30.3158 -81.7736 343° North 385 443 35,000  Level Jacksonville Center
11:07PM 30.4186 -81.8086 344° North 385 443 35,000  Level Jacksonville Center
11:08PM 30.5336 -81.8483 343° North 403 464 35,000  Level Jacksonville Center
11:09PM 30.6258 -81.8883 340° North 398 458 35,000  Level Jacksonville Center
11:10PM 30.7283 -81.9236 344° North 391 450 35,000  Level Jacksonville Center
11:11PM 30.8311 -81.9611 343° North 384 442 35,000  Level Jacksonville Center
11:12PM 30.9294 -81.9989 342° North 384 442 35,000  Level Jacksonville Center
11:13PM 31.0342 -82.0367 343° North 384 442 35,000  Level Jacksonville Center
11:14PM 31.1344 -82.0697 344° North 384 442 35,000  Level Jacksonville Center
11:15PM 31.2369 -82.1078 342° North 384 442 35,000  Level Jacksonville Center
11:16PM 31.3375 -82.1433 343° North 384 442 35,000  Level Jacksonville Center
11:17PM 31.4400 -82.1839 341° North 384 442 35,000  Level Jacksonville Center
11:18PM 31.5425 -82.2247 341° North 384 442 35,000  Level Jacksonville Center
11:20PM 31.7950 -82.3114 344° North 395 455 35,000  Level Atlanta Center
11:21PM 31.8978 -82.3461 344° North 383 441 35,000  Level Atlanta Center
11:22PM 31.9986 -82.3883 340° North 383 441 35,000  Level Atlanta Center
11:23PM 32.1014 -82.4231 344° North 383 441 35,000  Level Atlanta Center
11:24PM 32.2061 -82.4606 343° North 383 441 35,000  Level Atlanta Center
11:25PM 32.3150 -82.4953 345° North 383 441 35,000  Level Atlanta Center
11:26PM 32.4178 -82.5403 340° North 383 441 35,000  Level Atlanta Center
11:27PM 32.5206 -82.5806 342° North 383 441 35,000  Level Atlanta Center
11:28PM 32.6214 -82.6183 342° North 383 441 35,000  Level Atlanta Center
11:29PM 32.7239 -82.6561 343° North 383 441 35,000  Level Atlanta Center
11:30PM 32.8289 -82.6942 343° North 383 441 35,000  Level Atlanta Center
11:31PM 32.9314 -82.7344 342° North 388 447 35,000  Level Atlanta Center
11:32PM 33.0383 -82.7750 342° North 388 447 35,000  Level Atlanta Center
11:33PM 33.1453 -82.8158 342° North 388 447 35,000  Level Atlanta Center
11:34PM 33.2522 -82.8539 343° North 394 453 35,000  Level Atlanta Center
11:35PM 33.3486 -82.8950 340° North 394 453 35,000  Level Atlanta Center
11:36PM 33.4575 -82.9358 343° North 404 465 35,000  Level Atlanta Center
11:37PM 33.5664 -82.9742 344° North 404 465 35,000  Level Atlanta Center
11:38PM 33.6731 -83.0178 341° North 404 465 35,000  Level Atlanta Center
11:44PM 34.2777 -83.2471 342° North 405 466 35,000  Level FlightAware ADS-B (KDZJ)
11:45PM 34.3558 -83.2777 342° North 405 466 35,000  Level FlightAware ADS-B (KDZJ)
11:45PM 34.4404 -83.3107 342° North 405 466 35,000  Level FlightAware ADS-B (KDZJ)
11:46PM 34.5075 -83.3370 342° North 405 466 35,000  Level FlightAware ADS-B (KDZJ)
11:47PM 34.5696 -83.3613 342° North 406 467 35,000  Level FlightAware ADS-B (KDZJ)
11:47PM 34.6488 -83.3924 342° North 406 467 35,000  Level FlightAware ADS-B (KDZJ)
11:48PM 34.7318 -83.4252 342° North 407 468 35,000  Level FlightAware ADS-B (KDZJ)
11:49PM 34.7959 -83.4505 342° North 407 468 35,000  Level FlightAware ADS-B (KDZJ)
11:49PM 34.8721 -83.4805 342° North 408 470 35,000  Level FlightAware ADS-B (KDZJ)
11:50PM 34.9498 -83.5113 342° North 409 471 35,000  Level FlightAware ADS-B (KDZJ)
11:51PM 35.0181 -83.5383 342° North 409 471 35,000  Level FlightAware ADS-B (KDZJ)
11:51PM 35.0964 -83.5695 342° North 409 471 35,000  Level FlightAware ADS-B (KDZJ)
11:52PM 35.1650 -83.5967 342° North 410 472 35,000  Level FlightAware ADS-B (KDZJ)
11:53PM 35.2425 -83.6277 342° North 409 471 35,000  Level FlightAware ADS-B (KDZJ)
11:53PM 35.3135 -83.6561 342° North 409 471 35,000  Level FlightAware ADS-B (KDZJ)
11:54PM 35.3913 -83.6871 342° North 411 473 35,000  Level FlightAware ADS-B (KDZJ)
11:55PM 35.4613 -83.7154 341° North 411 473 35,000  Level FlightAware ADS-B (KDZJ)
11:55PM 35.5376 -83.7461 342° North 420 483 35,000  Level FlightAware ADS-B (KDZJ)
11:56PM 35.6472 -83.7933 342° North 414 476 35,000  Level Atlanta Center
11:57PM 35.7597 -83.8367 343° North 414 476 35,000  Level Atlanta Center
11:59PM 35.9519 -83.9219 340° North 419 482 35,000  Level Indianapolis Center
12:00AM 36.0547 -83.9822 335° Northwest 416 479 35,000  Level Indianapolis Center
12:01AM 36.1581 -84.0450 334° Northwest 416 479 35,000 -900 Level Indianapolis Center
12:07AM 36.6883 -84.5335 318° Northwest 399 459 29,100 -1,140 Descending FlightAware ADS-B (KBRY)
12:08AM 36.7745 -84.6292 318° Northwest 389 448 27,400 -1,740 Descending FlightAware ADS-B (KBRY)
12:09AM 36.8420 -84.7056 319° Northwest 388 447 25,400 -1,680 Descending FlightAware ADS-B (KBRY)
12:10AM 36.8859 -84.7537 319° Northwest 373 429 24,000 -660 Descending FlightAware ADS-B (KBRY)
12:11AM 37.0447 -84.9068 330° Northwest 388 447 24,000 -660 Level FlightAware ADS-B (KBRY)
12:12AM 37.1679 -84.9582 North 389 448 22,400 -1,980 Descending FlightAware ADS-B (KBRY)
12:13AM 37.2652 -84.9571 North 371 427 19,800 -2,760 Descending FlightAware ADS-B (KBRY)
12:14AM 37.3683 -84.9560 North 359 413 17,100 -2,520 Descending FlightAware ADS-B (KBRY)
12:15AM 37.4716 -84.9551 North 348 400 14,700 -2,340 Descending FlightAware ADS-B (KBRY)
12:16AM 37.5258 -84.9545 North 339 390 13,300 -1,680 Descending FlightAware ADS-B (KBRY)
12:17AM 37.6306 -84.9541 353° North 311 358 11,900 -960 Descending FlightAware ADS-B (KBRY)
12:19AM 37.7471 -84.9649 359° North 283 326 10,900 -720 Descending FlightAware ADS-B (KBRY)
12:20AM 37.8146 -84.9975 301° West 275 316 10,200 -1,080 Descending FlightAware ADS-B (KBRY)
12:21AM 37.8043 -85.0900 242° Southwest 274 315 8,800 -1,320 Descending FlightAware ADS-B (KBRY)
12:22AM 37.7950 -85.1807 265° West 265 305 7,600 -1,320 Descending FlightAware ADS-B (KBRY)
12:23AM 37.7900 -85.2670 266° West 260 299 6,300 -1,260 Descending FlightAware ADS-B (KBRY)
12:24AM 37.7858 -85.3564 267° West 254 292 5,200 -1,200 Descending FlightAware ADS-B (KBRY)
12:25AM 37.7816 -85.4471 267° West 246 283 3,900 -1,140 Descending FlightAware ADS-B (KBRY)
12:26AM 37.7998 -85.5305 299° West 245 282 2,900 -540 Descending FlightAware ADS-B (KBRY)
12:27AM 37.8315 -85.6053 298° West 244 281 2,900  Level FlightAware ADS-B (KBRY)
12:27AM 37.8680 -85.6295 North 232 267 3,000  Climbing FlightAware ADS-B
12:28AM 37.8870 -85.6305 352° North 219 252 2,900 -120 Descending FlightAware ADS-B (KBRY)
12:29AM 37.9437 -85.6484 345° North 219 252 2,900  Level FlightAware ADS-B (KBRY)
12:30AM 38.0038 -85.6687 346° North 220 253 2,900 -120 Level FlightAware ADS-B (KBRY)
12:31AM 38.0571 -85.6869 345° North 172 198 2,700 -600 Descending FlightAware ADS-B (KBRY)
12:32AM 38.0977 -85.7008 345° North 147 169 1,800 -840 Descending FlightAware ADS-B (KBRY)
12:33AM 38.1318 -85.7124 344° North 141 162 1,100 -780 Descending FlightAware ADS-B (KBRY)
12:41AM 38.1667 -85.7333 339° North  Level FlightAware Approximate